createdAt,value
2018-05-11T00:01:45.594Z,9.00
2018-05-11T00:04:12.530Z,8.43
2018-05-11T00:06:39.218Z,7.80
2018-05-11T00:09:05.912Z,7.77
2018-05-11T00:11:32.620Z,8.60
2018-05-11T00:13:59.295Z,7.10
2018-05-11T00:16:26.032Z,7.43
2018-05-11T00:18:52.703Z,7.43
2018-05-11T00:21:19.383Z,8.57
2018-05-11T00:23:46.088Z,7.97
2018-05-11T00:26:12.762Z,8.37
2018-05-11T00:28:39.452Z,8.07
2018-05-11T00:31:06.151Z,8.57
2018-05-11T00:33:32.871Z,9.00
2018-05-11T00:35:59.743Z,9.00
2018-05-11T00:38:26.418Z,9.80
2018-05-11T00:40:53.139Z,9.27
2018-05-11T00:43:19.827Z,7.67
2018-05-11T00:45:46.506Z,8.20
2018-05-11T00:48:13.188Z,8.20
2018-05-11T00:50:39.873Z,9.63
2018-05-11T00:53:06.576Z,8.13
2018-05-11T00:55:39.174Z,9.83
2018-05-11T00:58:06.037Z,8.07
2018-05-11T01:00:32.683Z,7.90
2018-05-11T01:02:59.379Z,9.70
2018-05-11T01:05:26.064Z,8.90
2018-05-11T01:07:52.768Z,8.80
2018-05-11T01:10:19.452Z,8.17
2018-05-11T01:12:46.132Z,7.93
2018-05-11T01:15:12.823Z,8.93
2018-05-11T01:17:39.631Z,8.00
2018-05-11T01:20:06.308Z,8.53
2018-05-11T01:22:33.004Z,7.77
2018-05-11T01:24:59.693Z,7.67
2018-05-11T01:27:26.392Z,8.57
2018-05-11T01:29:53.208Z,6.97
2018-05-11T01:32:19.935Z,8.57
2018-05-11T01:34:46.688Z,8.47
2018-05-11T01:37:13.356Z,8.50
2018-05-11T01:39:40.071Z,9.47
2018-05-11T01:42:06.874Z,9.83
2018-05-11T01:44:33.714Z,8.70
2018-05-11T01:47:00.387Z,10.10
2018-05-11T01:49:27.067Z,9.50
2018-05-11T01:51:53.755Z,9.00
2018-05-11T01:54:20.427Z,8.53
2018-05-11T01:56:47.126Z,7.80
2018-05-11T01:59:13.803Z,8.93
2018-05-11T02:01:40.500Z,8.63
2018-05-11T02:04:07.188Z,9.13
2018-05-11T02:06:33.895Z,9.13
2018-05-11T02:09:00.603Z,9.20
2018-05-11T02:11:27.288Z,9.30
2018-05-11T02:13:53.987Z,9.23
2018-05-11T02:16:20.703Z,10.30
2018-05-11T02:18:47.399Z,8.80
2018-05-11T02:21:14.132Z,9.70
2018-05-11T02:23:40.841Z,9.73
2018-05-11T02:26:07.538Z,7.97
2018-05-11T02:28:34.276Z,8.67
2018-05-11T02:31:00.975Z,8.80
2018-05-11T02:33:27.695Z,9.33
2018-05-11T02:35:54.381Z,10.07
2018-05-11T02:38:21.084Z,8.30
2018-05-11T02:40:47.874Z,9.33
2018-05-11T02:43:14.721Z,8.77
2018-05-11T02:45:41.396Z,10.00
2018-05-11T02:48:08.095Z,10.43
2018-05-11T02:50:34.829Z,8.27
2018-05-11T02:53:01.530Z,10.27
2018-05-11T02:55:28.223Z,10.37
2018-05-11T02:57:54.900Z,8.93
2018-05-11T03:00:21.597Z,9.77
2018-05-11T03:02:48.261Z,6.30
2018-05-11T03:05:14.955Z,5.07
2018-05-11T03:07:41.671Z,7.20
2018-05-11T03:10:08.367Z,8.80
2018-05-11T03:12:35.052Z,9.50
2018-05-11T03:15:01.757Z,8.47
2018-05-11T03:17:28.552Z,8.67
2018-05-11T03:19:55.299Z,7.43
2018-05-11T03:22:22.184Z,8.90
2018-05-11T03:24:48.874Z,7.57
2018-05-11T03:27:15.591Z,9.43
2018-05-11T03:29:42.283Z,8.50
2018-05-11T03:32:08.986Z,9.43
2018-05-11T03:34:35.672Z,6.47
2018-05-11T03:37:02.375Z,7.63
2018-05-11T03:39:29.075Z,8.93
2018-05-11T03:41:55.784Z,9.37
2018-05-11T03:44:22.492Z,9.70
2018-05-11T03:46:49.164Z,9.53
2018-05-11T03:49:15.867Z,9.40
2018-05-11T03:51:42.578Z,7.53
2018-05-11T03:54:12.224Z,8.97
2018-05-11T03:56:38.920Z,9.50
2018-05-11T03:59:05.634Z,10.70
2018-05-11T04:01:38.126Z,7.43
2018-05-11T04:04:10.611Z,7.33
2018-05-11T04:06:57.076Z,7.70
2018-05-11T04:09:23.930Z,8.60
2018-05-11T04:11:50.603Z,8.63
2018-05-11T04:14:17.291Z,8.60
2018-05-11T04:16:43.999Z,9.17
2018-05-11T04:19:10.701Z,9.73
2018-05-11T04:21:37.483Z,9.70
2018-05-11T04:24:04.176Z,10.60
2018-05-11T04:26:30.904Z,9.90
2018-05-11T04:28:57.591Z,8.77
2018-05-11T04:31:24.333Z,7.83
2018-05-11T04:33:51.034Z,8.47
2018-05-11T04:36:17.708Z,10.50
2018-05-11T04:38:44.409Z,7.73
2018-05-11T04:41:11.117Z,5.57
2018-05-11T04:43:37.784Z,8.00
2018-05-11T04:46:04.500Z,8.93
2018-05-11T04:48:31.184Z,9.30
2018-05-11T04:50:57.887Z,9.90
2018-05-11T04:53:24.562Z,8.00
2018-05-11T04:55:51.268Z,8.50
2018-05-11T04:58:17.936Z,7.93
2018-05-11T05:00:44.716Z,10.17
2018-05-11T05:03:11.456Z,10.90
2018-05-11T05:05:38.155Z,11.60
2018-05-11T05:08:04.865Z,10.53
2018-05-11T05:10:31.548Z,10.90
2018-05-11T05:12:58.295Z,12.37
2018-05-11T05:15:24.996Z,11.10
2018-05-11T05:17:51.680Z,11.07
2018-05-11T05:20:18.465Z,10.90
2018-05-11T05:22:45.352Z,11.97
2018-05-11T05:25:12.040Z,12.00
2018-05-11T05:27:38.728Z,12.13
2018-05-11T05:30:05.439Z,12.43
2018-05-11T05:32:32.135Z,13.47
2018-05-11T05:34:58.962Z,13.93
2018-05-11T05:37:25.659Z,15.23
2018-05-11T05:39:52.351Z,15.20
2018-05-11T05:42:19.083Z,13.63
2018-05-11T05:44:45.772Z,14.40
2018-05-11T05:47:12.530Z,14.93
2018-05-11T05:49:39.219Z,13.30
2018-05-11T05:52:05.948Z,14.80
2018-05-11T05:54:32.591Z,13.10
2018-05-11T05:56:59.280Z,13.37
2018-05-11T05:59:25.987Z,11.97
2018-05-11T06:01:52.680Z,13.10
2018-05-11T06:04:19.395Z,14.30
2018-05-11T06:06:46.146Z,12.83
2018-05-11T06:09:12.880Z,12.80
2018-05-11T06:11:39.562Z,13.73
2018-05-11T06:14:06.315Z,14.80
2018-05-11T06:16:33.000Z,14.77
2018-05-11T06:18:59.684Z,13.63
2018-05-11T06:21:26.412Z,13.87
2018-05-11T06:23:53.108Z,14.23
2018-05-11T06:26:20.257Z,14.87
2018-05-11T06:28:46.939Z,15.27
2018-05-11T06:31:13.659Z,15.93
2018-05-11T06:33:40.331Z,14.20
2018-05-11T06:36:07.065Z,15.53
2018-05-11T06:38:33.770Z,15.50
2018-05-11T06:41:00.456Z,14.50
2018-05-11T06:43:27.407Z,14.70
2018-05-11T06:45:54.105Z,13.67
2018-05-11T06:48:20.802Z,13.47
2018-05-11T06:50:47.484Z,14.93
2018-05-11T06:53:14.185Z,13.70
2018-05-11T06:55:40.919Z,13.77
2018-05-11T06:58:08.135Z,14.33
2018-05-11T07:00:34.835Z,14.53
2018-05-11T07:03:01.551Z,15.70
2018-05-11T07:05:28.244Z,15.80
2018-05-11T07:07:55.040Z,15.50
2018-05-11T07:10:21.675Z,14.27
2018-05-11T07:12:48.367Z,14.90
2018-05-11T07:15:15.052Z,14.43
2018-05-11T07:17:41.888Z,14.70
2018-05-11T07:20:08.627Z,12.57
2018-05-11T07:22:35.403Z,12.20
2018-05-11T07:25:02.089Z,12.73
2018-05-11T07:27:28.871Z,12.20
2018-05-11T07:29:55.561Z,13.97
2018-05-11T07:32:22.252Z,11.80
2018-05-11T07:34:48.935Z,12.83
2018-05-11T07:37:15.896Z,12.80
2018-05-11T07:39:42.559Z,13.50
2018-05-11T07:42:09.266Z,12.80
2018-05-11T07:44:35.988Z,13.10
2018-05-11T07:47:02.685Z,13.60
2018-05-11T07:49:29.456Z,12.43
2018-05-11T07:51:56.155Z,12.60
2018-05-11T07:54:22.831Z,13.53
2018-05-11T07:56:49.653Z,12.50
2018-05-11T07:59:16.569Z,13.87
2018-05-11T08:01:43.295Z,14.60
2018-05-11T08:04:09.980Z,12.90
2018-05-11T08:06:36.688Z,12.73
2018-05-11T08:09:03.408Z,14.07
2018-05-11T08:11:30.165Z,15.20
2018-05-11T08:13:56.764Z,12.80
2018-05-11T08:16:23.476Z,12.77
2018-05-11T08:18:50.234Z,13.27
2018-05-11T08:21:16.966Z,14.67
2018-05-11T08:23:43.641Z,13.10
2018-05-11T08:26:10.351Z,16.13
2018-05-11T08:28:37.083Z,17.57
2018-05-11T08:31:03.799Z,17.33
2018-05-11T08:33:30.600Z,15.67
2018-05-11T08:35:57.406Z,14.97
2018-05-11T08:38:24.045Z,14.87
2018-05-11T08:40:50.752Z,15.47
2018-05-11T08:43:17.457Z,15.20
2018-05-11T08:45:44.152Z,17.00
2018-05-11T08:48:10.908Z,14.93
2018-05-11T08:50:37.596Z,15.97
2018-05-11T08:53:04.315Z,15.90
2018-05-11T08:55:30.984Z,16.10
2018-05-11T08:57:57.799Z,14.60
2018-05-11T09:00:24.512Z,16.10
2018-05-11T09:02:51.292Z,15.03
2018-05-11T09:05:17.983Z,15.60
2018-05-11T09:07:44.696Z,15.80
2018-05-11T09:10:11.401Z,16.20
2018-05-11T09:12:38.096Z,14.53
2018-05-11T09:15:04.814Z,16.07
2018-05-11T09:17:31.515Z,16.07
2018-05-11T09:19:58.249Z,17.13
2018-05-11T09:22:24.972Z,15.60
2018-05-11T09:24:51.672Z,15.30
2018-05-11T09:27:18.360Z,15.83
2018-05-11T09:29:45.080Z,15.17
2018-05-11T09:32:11.765Z,15.87
2018-05-11T09:34:38.537Z,14.97
2018-05-11T09:37:05.249Z,15.13
2018-05-11T09:39:32.184Z,14.47
2018-05-11T09:41:58.869Z,14.47
2018-05-11T09:44:25.630Z,13.50
2018-05-11T09:46:52.268Z,13.47
2018-05-11T09:49:18.977Z,13.40
2018-05-11T09:51:45.672Z,14.90
2018-05-11T09:54:12.355Z,13.30
2018-05-11T09:56:39.061Z,12.80
2018-05-11T09:59:05.782Z,14.30
2018-05-11T10:01:32.483Z,14.90
2018-05-11T10:03:59.188Z,14.93
2018-05-11T10:06:25.876Z,14.07
2018-05-11T10:08:52.581Z,12.67
2018-05-11T10:11:19.336Z,13.80
2018-05-11T10:13:46.083Z,14.00
2018-05-11T10:16:12.764Z,12.43
2018-05-11T10:18:39.483Z,12.63
2018-05-11T10:21:06.179Z,14.27
2018-05-11T10:23:32.889Z,13.47
2018-05-11T10:26:00.588Z,13.20
2018-05-11T10:28:29.124Z,15.60
2018-05-11T10:30:58.652Z,14.10
2018-05-11T10:33:26.216Z,15.17
2018-05-11T10:35:56.616Z,13.50
2018-05-11T10:38:24.263Z,14.90
2018-05-11T10:40:51.415Z,14.00
2018-05-11T10:43:19.799Z,13.83
2018-05-11T10:45:47.465Z,13.60
2018-05-11T10:48:17.254Z,13.33
2018-05-11T10:50:44.520Z,13.70
2018-05-11T10:53:12.065Z,14.47
2018-05-11T10:55:40.148Z,14.60
2018-05-11T10:58:08.626Z,11.73
2018-05-11T11:00:37.304Z,14.33
2018-05-11T11:03:05.194Z,13.37
2018-05-11T11:05:32.604Z,12.97
2018-05-11T11:08:02.070Z,12.07
2018-05-11T11:10:30.952Z,12.43
2018-05-11T11:12:58.532Z,13.93
2018-05-11T11:15:25.320Z,13.30
2018-05-11T11:17:52.888Z,12.60
2018-05-11T11:20:20.556Z,12.90
2018-05-11T11:22:47.235Z,13.37
2018-05-11T11:25:15.484Z,12.70
2018-05-11T11:27:42.959Z,13.30
2018-05-11T11:30:09.782Z,12.10
2018-05-11T11:32:38.064Z,11.90
2018-05-11T11:35:05.924Z,13.03
2018-05-11T11:37:32.603Z,13.37
2018-05-11T11:40:00.232Z,12.50
2018-05-11T11:42:26.947Z,11.30
2018-05-11T11:44:53.629Z,10.70
2018-05-11T11:47:21.229Z,11.10
2018-05-11T11:49:48.782Z,11.23
2018-05-11T11:52:15.501Z,10.83
2018-05-11T11:54:43.769Z,9.60
2018-05-11T11:57:10.516Z,10.50
2018-05-11T11:59:37.218Z,11.90
2018-05-11T12:02:04.680Z,11.33
2018-05-11T12:04:32.098Z,11.07
2018-05-11T12:06:58.771Z,10.33
2018-05-11T12:09:26.113Z,8.80
2018-05-11T12:11:52.827Z,11.37
2018-05-11T12:14:19.529Z,10.67
2018-05-11T12:16:46.931Z,9.40
2018-05-11T12:19:14.575Z,9.80
2018-05-11T12:21:41.969Z,9.30
2018-05-11T12:24:11.593Z,10.07
2018-05-11T12:26:39.224Z,9.93
2018-05-11T12:29:06.788Z,10.43
2018-05-11T12:31:34.071Z,10.33
2018-05-11T12:34:00.792Z,11.00
2018-05-11T12:36:28.291Z,9.90
2018-05-11T12:38:55.569Z,10.43
2018-05-11T12:41:23.855Z,10.23
2018-05-11T12:43:51.988Z,10.37
2018-05-11T12:46:18.709Z,11.30
2018-05-11T12:48:46.332Z,10.20
2018-05-11T12:51:13.048Z,10.03
2018-05-11T12:53:39.863Z,10.20
2018-05-11T12:56:08.077Z,9.93
2018-05-11T12:58:36.401Z,10.27
2018-05-11T13:01:03.067Z,9.90
2018-05-11T13:03:32.382Z,9.93
2018-05-11T13:05:59.616Z,10.77
2018-05-11T13:08:27.002Z,9.33
2018-05-11T13:10:53.707Z,9.83
2018-05-11T13:13:20.384Z,9.20
2018-05-11T13:15:47.080Z,10.13
2018-05-11T13:18:13.812Z,9.13
2018-05-11T13:20:40.596Z,9.33
2018-05-11T13:23:07.287Z,8.90
2018-05-11T13:25:33.991Z,9.47
2018-05-11T13:28:00.675Z,9.77
2018-05-11T13:30:27.438Z,10.27
2018-05-11T13:32:54.051Z,8.83
2018-05-11T13:35:20.758Z,9.57
2018-05-11T13:37:47.495Z,10.80
2018-05-11T13:40:16.013Z,9.83
2018-05-11T13:42:46.245Z,8.47
2018-05-11T13:45:13.798Z,7.83
2018-05-11T13:47:40.494Z,8.27
2018-05-11T13:50:07.855Z,8.50
2018-05-11T13:52:36.445Z,6.67
2018-05-11T13:55:04.026Z,7.63
2018-05-11T13:57:31.739Z,7.40
2018-05-11T13:59:58.434Z,9.70
2018-05-11T14:02:25.891Z,7.13
2018-05-11T14:04:53.292Z,7.40
2018-05-11T14:07:20.763Z,6.67
2018-05-11T14:09:48.805Z,7.00
2018-05-11T14:12:15.480Z,5.70
2018-05-11T14:14:42.831Z,6.90
2018-05-11T14:17:09.545Z,6.60
2018-05-11T14:19:36.288Z,6.10
2018-05-11T14:22:04.204Z,6.70
2018-05-11T14:24:30.907Z,6.60
2018-05-11T14:26:57.632Z,5.90
2018-05-11T14:29:24.319Z,6.50
2018-05-11T14:31:51.032Z,7.20
2018-05-11T14:34:17.726Z,5.90
2018-05-11T14:36:44.428Z,5.90
2018-05-11T14:39:12.022Z,5.37
2018-05-11T14:41:39.471Z,5.97
2018-05-11T14:44:06.197Z,4.73
2018-05-11T14:46:32.911Z,5.67
2018-05-11T14:48:59.624Z,5.13
2018-05-11T14:51:26.309Z,5.80
2018-05-11T14:53:55.871Z,4.60
2018-05-11T14:56:23.685Z,5.10
2018-05-11T14:58:51.519Z,4.50
2018-05-11T15:01:18.273Z,3.87
2018-05-11T15:03:45.872Z,3.93
2018-05-11T15:06:13.204Z,4.80
2018-05-11T15:08:39.877Z,4.33
2018-05-11T15:11:06.570Z,3.70
2018-05-11T15:13:34.057Z,4.07
2018-05-11T15:16:01.703Z,4.30
2018-05-11T15:18:28.383Z,3.83
2018-05-11T15:20:55.073Z,3.93
2018-05-11T15:23:21.823Z,3.73
2018-05-11T15:25:48.523Z,3.97
2018-05-11T15:28:15.420Z,3.90
2018-05-11T15:30:42.121Z,4.07
2018-05-11T15:33:08.856Z,3.87
2018-05-11T15:35:35.545Z,3.67
2018-05-11T15:38:05.385Z,3.53
2018-05-11T15:40:32.087Z,3.00
2018-05-11T15:43:00.179Z,2.80
2018-05-11T15:45:27.855Z,3.50
2018-05-11T15:47:55.388Z,4.40
2018-05-11T15:50:22.075Z,3.40
2018-05-11T15:52:48.764Z,6.80
2018-05-11T15:55:16.424Z,3.43
2018-05-11T15:57:43.140Z,2.70
2018-05-11T16:00:09.823Z,3.10
2018-05-11T16:02:36.524Z,3.47
2018-05-11T16:05:04.936Z,2.90
2018-05-11T16:07:32.207Z,2.73
2018-05-11T16:09:58.892Z,2.80
2018-05-11T16:12:25.597Z,2.87
2018-05-11T16:14:53.056Z,2.70
2018-05-11T16:17:19.740Z,2.40
2018-05-11T16:19:47.140Z,2.97
2018-05-11T16:22:13.859Z,2.53
2018-05-11T16:24:40.537Z,2.30
2018-05-11T16:27:07.950Z,2.97
2018-05-11T16:29:34.745Z,2.43
2018-05-11T16:32:01.964Z,3.30
2018-05-11T16:34:29.401Z,3.23
2018-05-11T16:36:57.359Z,3.13
2018-05-11T16:39:24.064Z,3.37
2018-05-11T16:41:52.443Z,3.40
2018-05-11T16:44:19.151Z,2.97
2018-05-11T16:46:45.830Z,3.00
2018-05-11T16:49:12.543Z,3.70
2018-05-11T16:51:39.221Z,3.40
2018-05-11T16:54:07.405Z,3.40
2018-05-11T16:56:34.092Z,3.93
2018-05-11T16:59:01.784Z,3.13
2018-05-11T17:01:28.469Z,3.63
2018-05-11T17:03:55.188Z,3.10
2018-05-11T17:06:22.837Z,3.40
2018-05-11T17:08:49.631Z,3.90
2018-05-11T17:11:16.908Z,3.57
2018-05-11T17:13:43.681Z,3.90
2018-05-11T17:16:10.472Z,3.10
2018-05-11T17:18:38.162Z,3.60
2018-05-11T17:21:04.868Z,2.97
2018-05-11T17:23:34.373Z,2.70
2018-05-11T17:26:05.051Z,3.40
2018-05-11T17:28:31.771Z,2.73
2018-05-11T17:30:58.455Z,3.50
2018-05-11T17:33:25.161Z,3.50
2018-05-11T17:35:51.923Z,3.30
2018-05-11T17:38:18.697Z,3.07
2018-05-11T17:40:45.405Z,2.93
2018-05-11T17:43:13.346Z,3.83
2018-05-11T17:45:40.605Z,3.10
2018-05-11T17:48:08.295Z,3.23
2018-05-11T17:50:36.265Z,2.80
2018-05-11T17:53:02.981Z,2.53
2018-05-11T17:55:31.790Z,2.73
2018-05-11T17:57:59.346Z,3.20
2018-05-11T18:00:26.076Z,3.13
2018-05-11T18:02:53.719Z,3.73
2018-05-11T18:05:20.961Z,3.40
2018-05-11T18:07:50.534Z,3.60
2018-05-11T18:10:18.978Z,3.20
2018-05-11T18:12:46.860Z,3.70
2018-05-11T18:15:14.495Z,4.10
2018-05-11T18:17:42.053Z,3.87
2018-05-11T18:20:09.603Z,3.63
2018-05-11T18:22:36.465Z,4.57
2018-05-11T18:25:04.103Z,4.00
2018-05-11T18:27:33.891Z,4.40
2018-05-11T18:30:01.862Z,4.60
2018-05-11T18:32:28.529Z,3.93
2018-05-11T18:34:56.248Z,4.80
2018-05-11T18:37:22.940Z,4.70
2018-05-11T18:39:49.804Z,4.13
2018-05-11T18:42:16.961Z,4.10
2018-05-11T18:44:43.635Z,4.67
2018-05-11T18:47:10.366Z,3.80
2018-05-11T18:49:37.948Z,3.73
2018-05-11T18:52:05.272Z,4.13
2018-05-11T18:54:32.393Z,4.63
2018-05-11T18:56:59.780Z,6.43
2018-05-11T18:59:26.856Z,4.00
2018-05-11T19:01:56.388Z,4.17
2018-05-11T19:04:24.255Z,4.00
2018-05-11T19:06:53.599Z,4.10
2018-05-11T19:09:22.053Z,3.90
2018-05-11T19:11:49.869Z,4.73
2018-05-11T19:14:17.410Z,4.53
2018-05-11T19:16:44.113Z,4.40
2018-05-11T19:19:11.582Z,4.80
2018-05-11T19:21:41.217Z,5.00
2018-05-11T19:24:08.452Z,5.03
2018-05-11T19:26:35.178Z,5.10
2018-05-11T19:29:03.163Z,4.67
2018-05-11T19:31:30.737Z,5.40
2018-05-11T19:34:00.273Z,4.70
2018-05-11T19:36:27.549Z,5.80
2018-05-11T19:38:54.828Z,5.50
2018-05-11T19:41:23.726Z,4.10
2018-05-11T19:43:50.449Z,5.40
2018-05-11T19:46:18.661Z,5.60
2018-05-11T19:48:45.358Z,6.10
2018-05-11T19:51:13.880Z,5.40
2018-05-11T19:53:40.602Z,5.33
2018-05-11T19:56:07.294Z,5.30
2018-05-11T19:58:34.040Z,5.60
2018-05-11T20:01:00.752Z,6.47
2018-05-11T20:03:29.350Z,4.83
2018-05-11T20:05:56.085Z,5.60
2018-05-11T20:08:24.782Z,5.07
2018-05-11T20:10:54.545Z,5.80
2018-05-11T20:13:21.217Z,5.70
2018-05-11T20:15:47.954Z,5.43
2018-05-11T20:18:14.669Z,5.60
2018-05-11T20:20:42.220Z,5.50
2018-05-11T20:23:08.936Z,5.27
2018-05-11T20:25:36.543Z,5.50
2018-05-11T20:28:03.239Z,5.03
2018-05-11T20:30:29.979Z,5.90
2018-05-11T20:32:57.355Z,5.07
2018-05-11T20:35:25.792Z,5.03
2018-05-11T20:37:53.846Z,5.20
2018-05-11T20:40:21.569Z,6.03
2018-05-11T20:42:49.304Z,5.97
2018-05-11T20:45:16.808Z,5.70
2018-05-11T20:47:43.513Z,5.20
2018-05-11T20:50:10.893Z,5.80
2018-05-11T20:52:37.788Z,6.37
2018-05-11T20:55:04.505Z,6.23
2018-05-11T20:57:32.136Z,5.67
2018-05-11T20:59:58.888Z,6.63
2018-05-11T21:02:25.628Z,6.43
2018-05-11T21:04:52.372Z,6.10
2018-05-11T21:07:19.073Z,5.20
2018-05-11T21:09:45.757Z,4.80
2018-05-11T21:12:12.479Z,5.43
2018-05-11T21:14:39.413Z,5.30
2018-05-11T21:17:06.038Z,5.70
2018-05-11T21:19:32.838Z,5.07
2018-05-11T21:21:59.532Z,5.37
2018-05-11T21:24:26.232Z,4.63
2018-05-11T21:26:52.909Z,5.60
2018-05-11T21:29:19.614Z,4.73
2018-05-11T21:31:46.385Z,5.63
2018-05-11T21:34:13.170Z,5.30
2018-05-11T21:36:39.872Z,6.17
2018-05-11T21:39:06.576Z,5.27
2018-05-11T21:41:33.285Z,5.17
2018-05-11T21:43:59.982Z,5.07
2018-05-11T21:46:26.688Z,6.03
2018-05-11T21:48:53.395Z,4.30
2018-05-11T21:51:20.083Z,5.43
2018-05-11T21:53:46.887Z,5.40
2018-05-11T21:56:13.654Z,5.57
2018-05-11T21:58:40.448Z,5.20
2018-05-11T22:01:07.187Z,5.30
2018-05-11T22:03:33.884Z,5.23
2018-05-11T22:06:00.578Z,4.93
2018-05-11T22:08:27.292Z,5.67
2018-05-11T22:10:54.001Z,4.90
2018-05-11T22:13:20.720Z,4.63
2018-05-11T22:15:47.478Z,4.90
2018-05-11T22:18:14.177Z,5.10
2018-05-11T22:20:40.893Z,5.70
2018-05-11T22:23:07.571Z,4.50
2018-05-11T22:25:34.292Z,4.97
2018-05-11T22:28:01.050Z,4.70
2018-05-11T22:30:27.728Z,4.63
2018-05-11T22:32:54.404Z,5.20
2018-05-11T22:35:21.115Z,4.97
2018-05-11T22:37:47.823Z,4.50
2018-05-11T22:40:14.501Z,5.17
2018-05-11T22:42:41.247Z,4.80
2018-05-11T22:45:07.947Z,5.40
2018-05-11T22:47:34.659Z,4.80
2018-05-11T22:50:01.328Z,5.10
2018-05-11T22:52:28.017Z,5.53
2018-05-11T22:54:54.715Z,4.83
2018-05-11T22:57:21.535Z,5.40
2018-05-11T22:59:48.208Z,5.23
2018-05-11T23:02:14.875Z,5.10
2018-05-11T23:04:41.599Z,5.13
2018-05-11T23:07:08.338Z,5.37
2018-05-11T23:09:35.083Z,6.10
2018-05-11T23:12:01.808Z,5.70
2018-05-11T23:14:28.521Z,6.33
2018-05-11T23:16:55.192Z,5.67
2018-05-11T23:19:21.995Z,5.43
2018-05-11T23:21:48.687Z,5.97
2018-05-11T23:24:15.378Z,6.03
2018-05-11T23:26:42.061Z,5.90
2018-05-11T23:29:08.902Z,5.97
2018-05-11T23:31:35.600Z,5.20
2018-05-11T23:34:02.280Z,5.97
2018-05-11T23:36:28.977Z,5.20
2018-05-11T23:38:55.659Z,5.43
2018-05-11T23:41:22.455Z,6.60
2018-05-11T23:43:49.180Z,5.90
2018-05-11T23:46:15.855Z,6.00
2018-05-11T23:48:42.554Z,6.70
2018-05-11T23:51:09.230Z,6.87
2018-05-11T23:53:36.081Z,7.10
2018-05-11T23:56:02.773Z,6.50
2018-05-11T23:58:29.449Z,6.73
